Time;durP1;ratioP1;P1;durP2;ratioP2;P2;SDS_P1;SDS_P2;PMS_P1;PMS_P2;Temp;Humidity;BMP_temperature;BMP_pressure;BME280_temperature;BME280_humidity;BME280_pressure;Samples;Min_cycle;Max_cycle;Signal;HPM_P1;HPM_P2
2021/11/03 00:02:05;;;;;;;3.47;1.63;;;;;;;;;;5034394;28;20037;-81
2021/11/03 00:04:32;;;;;;;3.97;1.98;;;;;;;;;;5034373;28;20489;-81
2021/11/03 00:06:58;;;;;;;4.53;2.30;;;;;;;;;;5033019;28;20045;-80
2021/11/03 00:09:26;;;;;;;3.22;1.92;;;;;;;;;;5017517;28;20037;-81
2021/11/03 00:11:53;;;;;;;3.75;1.90;;;;;;;;;;5033188;28;20473;-81
2021/11/03 00:14:21;;;;;;;4.22;2.63;;;;;;;;;;5034052;28;20053;-81
2021/11/03 00:16:47;;;;;;;3.22;2.00;;;;;;;;;;5030790;28;20038;-81
2021/11/03 00:19:14;;;;;;;2.97;2.10;;;;;;;;;;5031870;28;20045;-81
2021/11/03 00:21:40;;;;;;;3.38;1.92;;;;;;;;;;5033918;28;20050;-81
2021/11/03 00:24:06;;;;;;;4.00;2.08;;;;;;;;;;5034004;28;20048;-81
2021/11/03 00:26:33;;;;;;;4.38;2.28;;;;;;;;;;5032980;28;20714;-81
2021/11/03 00:29:00;;;;;;;8.68;2.28;;;;;;;;;;5033262;28;20045;-81
2021/11/03 00:31:28;;;;;;;3.28;1.92;;;;;;;;;;5034028;28;20494;-81
2021/11/03 00:33:55;;;;;;;2.78;1.48;;;;;;;;;;5033602;28;20044;-81
2021/11/03 00:36:21;;;;;;;4.00;1.65;;;;;;;;;;5034747;28;20116;-81
2021/11/03 00:38:47;;;;;;;3.28;1.80;;;;;;;;;;5034621;28;20046;-81
2021/11/03 00:41:14;;;;;;;6.75;1.80;;;;;;;;;;5033215;28;20394;-81
2021/11/03 00:43:40;;;;;;;2.67;1.63;;;;;;;;;;5033549;28;20397;-81
2021/11/03 00:46:07;;;;;;;2.70;1.52;;;;;;;;;;5033002;28;20037;-80
2021/11/03 00:48:35;;;;;;;4.30;1.98;;;;;;;;;;5032919;28;20394;-81
2021/11/03 00:51:01;;;;;;;4.30;2.13;;;;;;;;;;5028277;28;20050;-80
2021/11/03 00:53:28;;;;;;;4.18;1.75;;;;;;;;;;5034995;28;20048;-81
2021/11/03 00:55:54;;;;;;;3.35;2.00;;;;;;;;;;5033076;28;20647;-80
2021/11/03 00:58:21;;;;;;;5.32;2.05;;;;;;;;;;5037185;28;20046;-80
2021/11/03 01:00:47;;;;;;;3.25;1.90;;;;;;;;;;5036589;28;20042;-81
2021/11/03 01:03:14;;;;;;;3.58;1.48;;;;;;;;;;5037675;28;20049;-80
2021/11/03 01:05:42;;;;;;;5.88;1.80;;;;;;;;;;5038202;28;20038;-81
2021/11/03 01:08:10;;;;;;;3.45;1.80;;;;;;;;;;5035731;28;20052;-80
2021/11/03 01:10:38;;;;;;;2.95;1.60;;;;;;;;;;5032205;28;20037;-81
2021/11/03 01:13:05;;;;;;;3.83;1.92;;;;;;;;;;5036187;28;20044;-81
2021/11/03 01:15:32;;;;;;;4.53;1.77;;;;;;;;;;5037134;28;20041;-81
2021/11/03 01:17:58;;;;;;;2.78;1.67;;;;;;;;;;5034832;28;20042;-81
2021/11/03 01:20:26;;;;;;;2.67;1.38;;;;;;;;;;5036116;28;20044;-80
2021/11/03 01:22:54;;;;;;;3.53;1.92;;;;;;;;;;5036832;28;20052;-81
2021/11/03 01:25:21;;;;;;;2.75;1.45;;;;;;;;;;5036375;28;20397;-81
2021/11/03 01:27:48;;;;;;;2.90;1.63;;;;;;;;;;5036658;28;20497;-81
2021/11/03 01:30:16;;;;;;;3.38;1.80;;;;;;;;;;5034314;28;20049;-80
2021/11/03 01:32:43;;;;;;;2.45;1.60;;;;;;;;;;5036736;28;20399;-80
2021/11/03 01:35:11;;;;;;;2.92;1.38;;;;;;;;;;5036802;28;20044;-81
2021/11/03 01:37:37;;;;;;;4.15;1.40;;;;;;;;;;5036976;28;20118;-80
2021/11/03 01:40:08;;;;;;;4.28;1.80;;;;;;;;;;5035897;28;20053;-81
2021/11/03 01:42:34;;;;;;;2.17;1.15;;;;;;;;;;5033589;28;20038;-80
2021/11/03 01:45:01;;;;;;;2.58;1.45;;;;;;;;;;5036258;28;20045;-80
2021/11/03 01:47:43;;;;;;;2.88;1.60;;;;;;;;;;5036599;28;20037;-80
2021/11/03 01:50:15;;;;;;;2.78;1.42;;;;;;;;;;5036015;28;20088;-81
2021/11/03 01:52:42;;;;;;;3.35;1.40;;;;;;;;;;5036015;28;20044;-80
2021/11/03 01:55:12;;;;;;;2.67;1.17;;;;;;;;;;5035702;28;20041;-81
2021/11/03 01:57:42;;;;;;;2.65;1.50;;;;;;;;;;5035349;28;20056;-80
2021/11/03 02:00:15;;;;;;;4.45;1.80;;;;;;;;;;5033871;28;20045;-80
2021/11/03 02:02:42;;;;;;;4.05;1.73;;;;;;;;;;5032335;28;20132;-79
2021/11/03 02:05:11;;;;;;;3.22;1.42;;;;;;;;;;5034720;28;20064;-80
2021/11/03 02:07:39;;;;;;;2.70;1.48;;;;;;;;;;5034822;28;20034;-80
2021/11/03 02:10:06;;;;;;;4.28;1.30;;;;;;;;;;5033369;28;20397;-79
2021/11/03 02:12:34;;;;;;;4.28;1.50;;;;;;;;;;5029297;28;20037;-79
2021/11/03 02:15:00;;;;;;;3.17;1.52;;;;;;;;;;5035608;28;20057;-79
2021/11/03 02:17:27;;;;;;;4.25;1.45;;;;;;;;;;5034777;28;20041;-79
2021/11/03 02:19:56;;;;;;;2.45;1.33;;;;;;;;;;5035823;28;20037;-79
2021/11/03 02:22:26;;;;;;;3.70;1.52;;;;;;;;;;5034180;28;20038;-80
2021/11/03 02:25:00;;;;;;;3.00;1.30;;;;;;;;;;5035297;28;20045;-80
2021/11/03 02:27:28;;;;;;;4.13;1.80;;;;;;;;;;5035251;28;20037;-80
2021/11/03 02:29:55;;;;;;;3.13;1.25;;;;;;;;;;5033731;28;20056;-79
2021/11/03 02:32:24;;;;;;;4.93;1.55;;;;;;;;;;5031767;28;20044;-79
2021/11/03 02:34:51;;;;;;;4.28;1.35;;;;;;;;;;5034454;28;20080;-79
2021/11/03 02:37:36;;;;;;;2.55;1.50;;;;;;;;;;5029793;28;20470;-79
2021/11/03 02:40:10;;;;;;;2.55;1.55;;;;;;;;;;5035409;28;20425;-79
2021/11/03 02:42:39;;;;;;;2.60;1.42;;;;;;;;;;5034191;28;20045;-80
2021/11/03 02:45:08;;;;;;;2.47;1.40;;;;;;;;;;5034185;28;20120;-79
2021/11/03 02:47:35;;;;;;;2.50;1.15;;;;;;;;;;5031122;28;20041;-79
2021/11/03 02:50:01;;;;;;;2.67;1.30;;;;;;;;;;5034950;28;20402;-81
2021/11/03 02:52:28;;;;;;;4.72;1.98;;;;;;;;;;5034447;28;20506;-79
2021/11/03 02:54:54;;;;;;;3.00;1.98;;;;;;;;;;5035420;28;20045;-79
2021/11/03 02:57:23;;;;;;;3.28;1.80;;;;;;;;;;5033112;28;20041;-79
2021/11/03 02:59:49;;;;;;;4.28;1.83;;;;;;;;;;5034779;28;20052;-79
2021/11/03 03:02:16;;;;;;;2.20;1.42;;;;;;;;;;5034306;28;20037;-79
2021/11/03 03:04:45;;;;;;;2.40;1.20;;;;;;;;;;5035160;28;20040;-79
2021/11/03 03:07:12;;;;;;;3.67;1.75;;;;;;;;;;5030829;28;20050;-81
2021/11/03 03:09:39;;;;;;;2.05;1.25;;;;;;;;;;5030647;28;20045;-81
2021/11/03 03:12:09;;;;;;;3.08;1.33;;;;;;;;;;5033835;28;20049;-79
2021/11/03 03:14:39;;;;;;;3.15;1.70;;;;;;;;;;5036434;28;20046;-79
2021/11/03 03:17:09;;;;;;;3.00;1.45;;;;;;;;;;5033806;28;20049;-79
2021/11/03 03:19:35;;;;;;;4.43;2.45;;;;;;;;;;5035379;28;20038;-82
2021/11/03 03:22:01;;;;;;;6.18;2.72;;;;;;;;;;5032737;28;20053;-81
2021/11/03 03:24:28;;;;;;;5.05;2.55;;;;;;;;;;5033816;28;20041;-81
2021/11/03 03:26:54;;;;;;;5.65;2.30;;;;;;;;;;5031443;28;20056;-81
2021/11/03 03:29:21;;;;;;;5.15;2.55;;;;;;;;;;5033324;28;20049;-79
2021/11/03 03:31:49;;;;;;;4.70;1.50;;;;;;;;;;5033953;28;20046;-79
2021/11/03 03:34:20;;;;;;;2.55;1.40;;;;;;;;;;5032759;28;20040;-79
2021/11/03 03:36:48;;;;;;;2.88;1.83;;;;;;;;;;5029806;28;20064;-79
2021/11/03 03:39:18;;;;;;;6.35;1.75;;;;;;;;;;5034015;28;20054;-82
2021/11/03 03:41:49;;;;;;;3.45;1.77;;;;;;;;;;5032995;28;20043;-79
2021/11/03 03:44:16;;;;;;;2.75;1.13;;;;;;;;;;5032729;28;20048;-79
2021/11/03 03:46:42;;;;;;;3.53;1.38;;;;;;;;;;5033961;28;20037;-79
2021/11/03 03:49:10;;;;;;;3.67;1.67;;;;;;;;;;5033540;28;20048;-79
2021/11/03 03:51:37;;;;;;;2.78;1.45;;;;;;;;;;5033740;28;20497;-79
2021/11/03 03:54:03;;;;;;;2.78;1.35;;;;;;;;;;5034095;28;20056;-79
2021/11/03 03:56:29;;;;;;;3.17;1.25;;;;;;;;;;5034046;28;20053;-79
2021/11/03 03:58:56;;;;;;;2.60;1.40;;;;;;;;;;5031266;28;20501;-78
2021/11/03 04:01:27;;;;;;;2.10;1.35;;;;;;;;;;5033287;28;20049;-79
2021/11/03 04:03:54;;;;;;;2.63;1.52;;;;;;;;;;5025914;28;20095;-79
2021/11/03 04:06:22;;;;;;;2.42;1.40;;;;;;;;;;5032722;28;20141;-79
2021/11/03 04:08:48;;;;;;;3.63;1.35;;;;;;;;;;5032901;28;20608;-81
2021/11/03 04:11:15;;;;;;;2.28;1.10;;;;;;;;;;5032748;28;20053;-79
2021/11/03 04:13:42;;;;;;;3.83;1.80;;;;;;;;;;5032686;28;20037;-81
2021/11/03 04:16:09;;;;;;;2.17;1.23;;;;;;;;;;5025936;28;20037;-80
2021/11/03 04:18:35;;;;;;;1.98;1.20;;;;;;;;;;5030290;28;20045;-81
2021/11/03 04:21:02;;;;;;;4.03;1.63;;;;;;;;;;5033397;28;20386;-81
2021/11/03 04:23:30;;;;;;;6.63;2.10;;;;;;;;;;5032654;28;20057;-81
2021/11/03 04:25:57;;;;;;;3.03;1.45;;;;;;;;;;5033684;28;20041;-81
2021/11/03 04:28:23;;;;;;;2.40;1.30;;;;;;;;;;5032780;28;20042;-81
2021/11/03 04:30:50;;;;;;;2.50;1.23;;;;;;;;;;5034538;28;20038;-81
2021/11/03 04:33:18;;;;;;;3.13;1.58;;;;;;;;;;5032824;28;20064;-81
2021/11/03 04:35:45;;;;;;;2.80;1.40;;;;;;;;;;5032910;28;20044;-80
2021/11/03 04:38:12;;;;;;;4.00;1.20;;;;;;;;;;5032151;28;20037;-80
2021/11/03 04:40:40;;;;;;;5.25;1.20;;;;;;;;;;5031528;28;20398;-80
2021/11/03 04:43:06;;;;;;;3.10;1.10;;;;;;;;;;5032059;28;20037;-80
2021/11/03 04:45:33;;;;;;;1.83;1.20;;;;;;;;;;5034025;28;20033;-81
2021/11/03 04:47:59;;;;;;;4.43;1.52;;;;;;;;;;5033327;28;20416;-81
2021/11/03 04:50:29;;;;;;;2.28;1.25;;;;;;;;;;5033339;28;20042;-81
2021/11/03 04:52:56;;;;;;;2.05;1.27;;;;;;;;;;5032105;28;20136;-81
2021/11/03 04:55:22;;;;;;;3.03;1.20;;;;;;;;;;5033922;28;20109;-81
2021/11/03 04:57:50;;;;;;;4.28;1.30;;;;;;;;;;5033731;28;20044;-81
2021/11/03 05:00:23;;;;;;;2.25;1.15;;;;;;;;;;5031466;28;20049;-81
2021/11/03 05:02:50;;;;;;;1.02;0.93;;;;;;;;;;5031984;28;20437;-80
2021/11/03 05:05:16;;;;;;;2.65;1.30;;;;;;;;;;5033500;28;20058;-80
2021/11/03 05:07:43;;;;;;;2.47;1.20;;;;;;;;;;5033300;28;20512;-81
2021/11/03 05:10:10;;;;;;;3.47;1.50;;;;;;;;;;5033789;28;20065;-80
2021/11/03 05:12:36;;;;;;;5.18;1.85;;;;;;;;;;5026513;28;20386;-80
2021/11/03 05:15:05;;;;;;;5.13;1.48;;;;;;;;;;5031942;28;20041;-80
2021/11/03 05:17:31;;;;;;;2.83;1.52;;;;;;;;;;5033129;28;20048;-81
2021/11/03 05:19:58;;;;;;;4.97;1.58;;;;;;;;;;5030909;28;20052;-80
2021/11/03 05:22:30;;;;;;;2.10;1.27;;;;;;;;;;5032274;28;20038;-81
2021/11/03 05:24:57;;;;;;;1.80;1.20;;;;;;;;;;5033238;28;20041;-81
2021/11/03 05:27:24;;;;;;;3.92;1.83;;;;;;;;;;5033504;28;20041;-81
2021/11/03 05:29:50;;;;;;;3.30;1.88;;;;;;;;;;5035940;28;20041;-80
2021/11/03 05:32:18;;;;;;;2.72;1.70;;;;;;;;;;5037572;28;20037;-80
2021/11/03 05:34:45;;;;;;;4.90;1.88;;;;;;;;;;5040250;28;20053;-80
2021/11/03 05:37:14;;;;;;;3.10;1.80;;;;;;;;;;5034973;28;20053;-81
2021/11/03 05:39:41;;;;;;;4.30;1.75;;;;;;;;;;5034314;28;20041;-80
2021/11/03 05:42:07;;;;;;;4.50;1.83;;;;;;;;;;5033180;28;20045;-80
2021/11/03 05:44:34;;;;;;;4.72;2.30;;;;;;;;;;5033987;28;20061;-80
2021/11/03 05:47:01;;;;;;;2.97;1.60;;;;;;;;;;5036185;28;20076;-81
2021/11/03 05:49:32;;;;;;;3.47;1.83;;;;;;;;;;5035527;28;20389;-81
2021/11/03 05:52:00;;;;;;;4.68;2.10;;;;;;;;;;5035736;28;20052;-81
2021/11/03 05:54:27;;;;;;;8.70;3.85;;;;;;;;;;5033800;28;20041;-80
2021/11/03 05:56:54;;;;;;;8.38;4.93;;;;;;;;;;5034446;28;20445;-81
2021/11/03 05:59:21;;;;;;;8.82;6.90;;;;;;;;;;5032039;28;20037;-80
2021/11/03 06:01:47;;;;;;;6.97;3.63;;;;;;;;;;5034240;28;20100;-81
2021/11/03 06:04:14;;;;;;;12.82;4.78;;;;;;;;;;5035186;28;20478;-81
2021/11/03 06:06:42;;;;;;;19.63;6.22;;;;;;;;;;5033411;28;20037;-81
2021/11/03 06:09:09;;;;;;;10.05;6.85;;;;;;;;;;5035116;28;20068;-81
2021/11/03 06:11:38;;;;;;;10.90;7.03;;;;;;;;;;5040826;28;20049;-81
2021/11/03 06:14:05;;;;;;;12.05;6.75;;;;;;;;;;5035641;28;20379;-81
2021/11/03 06:16:32;;;;;;;8.32;5.53;;;;;;;;;;5030181;28;20037;-80
2021/11/03 06:18:59;;;;;;;8.43;5.75;;;;;;;;;;5036530;28;20041;-81
2021/11/03 06:21:25;;;;;;;8.52;5.28;;;;;;;;;;5034340;28;20041;-81
2021/11/03 06:23:54;;;;;;;15.07;5.50;;;;;;;;;;5035253;28;20053;-81
2021/11/03 06:26:23;;;;;;;7.15;4.43;;;;;;;;;;5033257;28;20398;-81
2021/11/03 06:28:50;;;;;;;9.43;4.82;;;;;;;;;;5034994;28;20037;-81
2021/11/03 06:31:16;;;;;;;13.45;5.60;;;;;;;;;;5034126;28;20053;-81
2021/11/03 06:33:43;;;;;;;13.05;6.93;;;;;;;;;;5035108;28;20060;-81
2021/11/03 06:36:11;;;;;;;11.27;5.88;;;;;;;;;;5035127;28;20037;-82
2021/11/03 06:38:37;;;;;;;13.82;6.25;;;;;;;;;;5020526;28;20038;-81
2021/11/03 06:41:07;;;;;;;13.50;6.30;;;;;;;;;;5035549;28;20041;-81
2021/11/03 06:43:33;;;;;;;16.92;7.53;;;;;;;;;;5033559;28;20099;-81
2021/11/03 06:46:00;;;;;;;18.98;8.75;;;;;;;;;;5033930;28;20037;-81
2021/11/03 06:48:26;;;;;;;11.43;5.53;;;;;;;;;;5034921;28;20038;-81
2021/11/03 06:50:53;;;;;;;12.18;5.93;;;;;;;;;;5027143;28;20509;-81
2021/11/03 06:53:22;;;;;;;10.35;4.95;;;;;;;;;;5035172;28;20068;-81
2021/11/03 06:55:49;;;;;;;11.95;5.20;;;;;;;;;;5034586;28;20405;-81
2021/11/03 06:58:18;;;;;;;9.10;5.35;;;;;;;;;;5034684;28;20848;-81
2021/11/03 07:00:47;;;;;;;10.38;4.85;;;;;;;;;;5035305;28;20044;-82
2021/11/03 07:03:13;;;;;;;9.75;4.72;;;;;;;;;;5034391;28;20044;-81
2021/11/03 07:05:47;;;;;;;10.02;4.85;;;;;;;;;;5033810;28;20080;-81
2021/11/03 07:08:14;;;;;;;7.97;4.70;;;;;;;;;;5034749;28;20083;-81
2021/11/03 07:10:44;;;;;;;13.25;4.88;;;;;;;;;;5035843;28;20053;-81
2021/11/03 07:13:11;;;;;;;8.57;4.47;;;;;;;;;;5032431;28;20120;-82
2021/11/03 07:15:40;;;;;;;10.50;4.90;;;;;;;;;;5030164;28;20434;-81
2021/11/03 07:18:08;;;;;;;8.70;5.82;;;;;;;;;;5033387;28;20045;-81
2021/11/03 07:20:36;;;;;;;21.98;8.55;;;;;;;;;;5035093;28;20406;-81
2021/11/03 07:23:02;;;;;;;15.60;9.90;;;;;;;;;;5025664;28;20057;-81
2021/11/03 07:25:29;;;;;;;16.42;8.05;;;;;;;;;;5034557;28;20033;-81
2021/11/03 07:27:57;;;;;;;9.07;5.40;;;;;;;;;;5033755;28;20056;-82
2021/11/03 07:30:28;;;;;;;10.15;5.63;;;;;;;;;;5035047;28;20041;-81
2021/11/03 07:32:56;;;;;;;11.75;6.05;;;;;;;;;;5034660;28;20861;-82
2021/11/03 07:35:23;;;;;;;10.07;6.35;;;;;;;;;;5035696;28;20033;-82
2021/11/03 07:37:49;;;;;;;11.38;6.43;;;;;;;;;;5034228;28;20037;-82
2021/11/03 07:40:18;;;;;;;10.05;5.53;;;;;;;;;;5018111;28;20046;-81
2021/11/03 07:42:45;;;;;;;10.98;5.57;;;;;;;;;;5033568;28;20041;-81
2021/11/03 07:45:12;;;;;;;7.50;5.07;;;;;;;;;;5033118;28;20514;-81
2021/11/03 07:47:39;;;;;;;8.30;5.50;;;;;;;;;;5034041;28;20048;-81
2021/11/03 07:50:13;;;;;;;9.80;6.07;;;;;;;;;;5034319;28;20141;-82
2021/11/03 07:52:40;;;;;;;11.13;6.63;;;;;;;;;;5033575;28;20044;-81
2021/11/03 07:55:07;;;;;;;9.68;5.72;;;;;;;;;;5033746;28;20048;-81
2021/11/03 07:57:33;;;;;;;9.13;5.55;;;;;;;;;;5034080;28;20152;-82
2021/11/03 08:00:00;;;;;;;8.70;5.20;;;;;;;;;;5033224;28;20052;-81
2021/11/03 08:02:26;;;;;;;9.90;5.03;;;;;;;;;;5034939;28;20049;-80
2021/11/03 08:04:53;;;;;;;7.55;4.45;;;;;;;;;;5037953;28;20470;-82
2021/11/03 08:07:20;;;;;;;8.82;5.97;;;;;;;;;;5033083;28;20041;-81
2021/11/03 08:09:47;;;;;;;8.43;5.75;;;;;;;;;;5030803;28;20048;-82
2021/11/03 08:12:16;;;;;;;9.27;4.68;;;;;;;;;;5037109;28;20029;-80
2021/11/03 08:14:42;;;;;;;8.30;4.85;;;;;;;;;;5038316;28;20390;-81
2021/11/03 08:17:11;;;;;;;6.72;4.10;;;;;;;;;;5030523;28;20040;-82
2021/11/03 08:19:42;;;;;;;8.48;4.20;;;;;;;;;;5031821;28;20616;-80
2021/11/03 08:22:09;;;;;;;6.28;3.85;;;;;;;;;;5032797;28;20556;-79
2021/11/03 08:24:37;;;;;;;4.95;3.38;;;;;;;;;;5032807;28;20040;-79
2021/11/03 08:27:04;;;;;;;6.13;3.75;;;;;;;;;;5029123;28;20048;-80
2021/11/03 08:29:31;;;;;;;5.10;3.33;;;;;;;;;;5028568;28;20602;-80
2021/11/03 08:31:59;;;;;;;5.57;3.15;;;;;;;;;;5032721;28;20049;-80
2021/11/03 08:34:29;;;;;;;6.03;2.97;;;;;;;;;;5032384;28;20041;-80
2021/11/03 08:36:58;;;;;;;5.45;3.25;;;;;;;;;;5029168;28;20416;-80
2021/11/03 08:39:24;;;;;;;5.13;3.03;;;;;;;;;;5031223;28;20041;-80
2021/11/03 08:41:52;;;;;;;5.32;2.95;;;;;;;;;;5030378;28;20045;-80
2021/11/03 08:44:19;;;;;;;6.80;3.72;;;;;;;;;;5032803;28;20038;-80
2021/11/03 08:46:45;;;;;;;5.50;3.08;;;;;;;;;;5032510;28;20670;-82
2021/11/03 08:49:12;;;;;;;6.65;3.13;;;;;;;;;;5032576;28;20363;-80
2021/11/03 08:51:39;;;;;;;5.65;3.35;;;;;;;;;;5033692;28;20064;-80
2021/11/03 08:54:07;;;;;;;4.25;2.45;;;;;;;;;;5033567;28;20065;-80
2021/11/03 08:56:35;;;;;;;5.03;2.97;;;;;;;;;;5033479;28;20124;-80
2021/11/03 08:59:04;;;;;;;7.93;3.58;;;;;;;;;;5033487;28;20037;-80
2021/11/03 09:01:31;;;;;;;5.65;3.50;;;;;;;;;;5032079;28;20094;-80
2021/11/03 09:03:58;;;;;;;7.35;2.90;;;;;;;;;;5032568;28;20053;-79
2021/11/03 09:06:24;;;;;;;4.97;2.83;;;;;;;;;;5031574;28;20034;-80
2021/11/03 09:08:51;;;;;;;5.00;2.80;;;;;;;;;;5031753;28;20044;-80
2021/11/03 09:11:17;;;;;;;5.20;2.67;;;;;;;;;;5032971;28;20050;-80
2021/11/03 09:13:44;;;;;;;4.03;2.80;;;;;;;;;;5032997;28;20041;-80
2021/11/03 09:16:12;;;;;;;4.53;2.90;;;;;;;;;;5033603;28;20056;-80
2021/11/03 09:18:39;;;;;;;4.05;2.50;;;;;;;;;;5036104;28;20037;-80
2021/11/03 09:21:08;;;;;;;3.95;2.30;;;;;;;;;;5035189;28;20045;-80
2021/11/03 09:23:35;;;;;;;4.00;2.60;;;;;;;;;;5030326;28;20417;-80
2021/11/03 09:26:02;;;;;;;4.30;2.30;;;;;;;;;;5029178;28;20483;-80
2021/11/03 09:28:31;;;;;;;3.58;2.33;;;;;;;;;;5036265;28;20042;-80
2021/11/03 09:30:58;;;;;;;4.13;2.33;;;;;;;;;;5036395;28;20140;-80
2021/11/03 09:33:26;;;;;;;4.68;2.15;;;;;;;;;;5030585;28;20046;-80
2021/11/03 09:35:54;;;;;;;3.67;2.03;;;;;;;;;;5035118;28;20038;-80
2021/11/03 09:38:24;;;;;;;4.78;2.38;;;;;;;;;;5031965;28;20037;-80
2021/11/03 09:40:54;;;;;;;4.90;2.90;;;;;;;;;;5037298;28;20037;-80
2021/11/03 09:43:39;;;;;;;4.20;2.47;;;;;;;;;;5036057;28;20049;-79
2021/11/03 09:46:18;;;;;;;4.30;2.50;;;;;;;;;;5037202;28;20037;-81
2021/11/03 09:48:47;;;;;;;4.75;2.00;;;;;;;;;;5024497;28;20033;-81
2021/11/03 09:51:17;;;;;;;14.32;3.47;;;;;;;;;;5037529;28;20041;-82
2021/11/03 09:53:46;;;;;;;3.50;2.58;;;;;;;;;;5036595;28;20132;-80
2021/11/03 09:56:15;;;;;;;6.15;2.35;;;;;;;;;;5022715;28;20049;-80
2021/11/03 09:58:49;;;;;;;3.90;2.33;;;;;;;;;;5019155;28;20049;-80
2021/11/03 10:01:23;;;;;;;3.95;2.42;;;;;;;;;;5034068;28;20041;-81
2021/11/03 10:04:05;;;;;;;4.60;2.25;;;;;;;;;;5034899;28;20037;-80
2021/11/03 10:06:36;;;;;;;3.85;2.45;;;;;;;;;;5034987;28;20038;-80
2021/11/03 10:09:03;;;;;;;6.80;3.17;;;;;;;;;;5035217;28;20050;-80
2021/11/03 10:11:40;;;;;;;5.70;3.10;;;;;;;;;;5035211;28;20041;-81
2021/11/03 10:14:08;;;;;;;5.75;2.38;;;;;;;;;;5033433;28;20053;-80
2021/11/03 10:16:36;;;;;;;3.97;2.08;;;;;;;;;;5038606;28;20054;-81
2021/11/03 10:19:23;;;;;;;4.28;2.38;;;;;;;;;;5036839;28;20056;-80
2021/11/03 10:21:50;;;;;;;;;;;;;;;;;;5038328;28;20044;-81
2021/11/03 10:24:45;;;;;;;3.08;2.15;;;;;;;;;;5039334;28;19924;-81
2021/11/03 10:27:18;;;;;;;5.90;3.55;;;;;;;;;;5026618;28;20107;-80
2021/11/03 10:29:48;;;;;;;4.25;2.47;;;;;;;;;;5036555;28;20050;-80
2021/11/03 10:32:23;;;;;;;4.38;2.45;;;;;;;;;;5041010;28;20053;-81
2021/11/03 10:35:00;;;;;;;4.55;2.47;;;;;;;;;;5038094;28;20041;-80
2021/11/03 10:37:35;;;;;;;4.22;2.05;;;;;;;;;;5038349;28;20069;-80
2021/11/03 10:40:12;;;;;;;3.47;1.90;;;;;;;;;;5023878;28;20091;-81
2021/11/03 10:42:49;;;;;;;4.80;2.38;;;;;;;;;;5036979;28;20033;-82
2021/11/03 10:45:23;;;;;;;5.97;2.17;;;;;;;;;;5035915;28;20452;-84
2021/11/03 10:47:52;;;;;;;4.25;2.25;;;;;;;;;;5036801;28;20099;-82
2021/11/03 10:50:30;;;;;;;9.10;3.10;;;;;;;;;;5036546;28;20045;-81
2021/11/03 10:52:59;;;;;;;7.20;2.42;;;;;;;;;;5033775;28;20125;-81
2021/11/03 10:55:29;;;;;;;6.07;2.10;;;;;;;;;;5034270;28;20048;-80
2021/11/03 10:58:00;;;;;;;6.25;2.38;;;;;;;;;;5037525;28;20041;-80
2021/11/03 11:00:29;;;;;;;3.17;2.15;;;;;;;;;;5036006;28;20045;-80
2021/11/03 11:02:58;;;;;;;4.05;2.13;;;;;;;;;;5036659;28;20049;-80
2021/11/03 11:05:28;;;;;;;4.10;2.22;;;;;;;;;;5037495;28;20034;-80
2021/11/03 11:07:59;;;;;;;3.75;1.95;;;;;;;;;;5036715;28;20050;-80
2021/11/03 11:10:32;;;;;;;4.57;2.35;;;;;;;;;;5013494;28;20125;-80
2021/11/03 11:13:00;;;;;;;4.38;1.80;;;;;;;;;;5033778;28;20552;-80
2021/11/03 11:15:30;;;;;;;4.93;2.38;;;;;;;;;;5036334;28;20037;-80
2021/11/03 11:18:01;;;;;;;3.67;2.08;;;;;;;;;;5036316;28;20041;-80
2021/11/03 11:20:32;;;;;;;3.42;2.10;;;;;;;;;;5036837;28;20059;-80
2021/11/03 11:23:10;;;;;;;3.35;1.90;;;;;;;;;;5034251;28;20045;-80
2021/11/03 11:25:43;;;;;;;4.43;2.42;;;;;;;;;;5036050;28;20041;-79
2021/11/03 11:28:28;;;;;;;5.43;2.92;;;;;;;;;;5036094;28;20405;-79
2021/11/03 11:30:57;;;;;;;4.43;2.33;;;;;;;;;;5031741;28;20056;-80
2021/11/03 11:33:26;;;;;;;5.15;2.03;;;;;;;;;;5032853;28;20393;-80
2021/11/03 11:36:08;;;;;;;3.55;2.05;;;;;;;;;;5035359;28;20045;-80
2021/11/03 11:38:44;;;;;;;6.80;2.40;;;;;;;;;;5029714;28;20655;-80
2021/11/03 11:41:15;;;;;;;5.57;2.50;;;;;;;;;;5034765;28;20045;-80
2021/11/03 11:43:46;;;;;;;5.60;2.50;;;;;;;;;;5035795;28;20045;-81
2021/11/03 11:46:14;;;;;;;6.13;2.45;;;;;;;;;;5029469;28;20041;-80
2021/11/03 11:48:41;;;;;;;5.07;2.55;;;;;;;;;;5034843;28;20037;-81
2021/11/03 11:51:12;;;;;;;3.80;2.53;;;;;;;;;;5035028;28;20067;-80
2021/11/03 11:53:41;;;;;;;4.55;2.47;;;;;;;;;;5030370;28;20486;-80
2021/11/03 11:56:18;;;;;;;4.78;2.10;;;;;;;;;;5032103;28;20498;-81
2021/11/03 11:58:45;;;;;;;5.18;2.53;;;;;;;;;;5032335;28;20075;-80
2021/11/03 12:01:38;;;;;;;4.68;2.60;;;;;;;;;;5032151;28;20060;-81
2021/11/03 12:04:33;;;;;;;5.30;2.92;;;;;;;;;;5031221;28;20481;-80
2021/11/03 12:07:22;;;;;;;5.03;3.08;;;;;;;;;;5032147;28;20037;-80
2021/11/03 12:10:32;;;;;;;3.90;2.40;;;;;;;;;;5033116;28;20037;-81
2021/11/03 12:13:29;;;;;;;5.18;2.50;;;;;;;;;;5029597;28;20037;-80
2021/11/03 12:16:08;;;;;;;6.05;2.60;;;;;;;;;;5031584;28;20041;-81
2021/11/03 12:18:44;;;;;;;4.80;2.80;;;;;;;;;;5033303;28;20053;-81
2021/11/03 12:21:13;;;;;;;9.02;2.72;;;;;;;;;;5032881;28;20049;-81
2021/11/03 12:23:50;;;;;;;5.45;2.92;;;;;;;;;;5031676;28;20091;-81
2021/11/03 12:26:41;;;;;;;5.10;2.42;;;;;;;;;;5032944;28;20129;-81
2021/11/03 12:29:28;;;;;;;4.65;2.50;;;;;;;;;;5028616;28;20041;-81
2021/11/03 12:31:59;;;;;;;6.93;2.95;;;;;;;;;;5032452;28;20081;-80
2021/11/03 12:34:29;;;;;;;5.55;3.15;;;;;;;;;;5032290;28;20053;-81
2021/11/03 12:37:28;;;;;;;6.93;2.83;;;;;;;;;;5032716;28;20045;-81
2021/11/03 12:40:30;;;;;;;6.85;2.85;;;;;;;;;;5027823;28;20033;-81
2021/11/03 12:43:03;;;;;;;4.63;2.90;;;;;;;;;;5031587;28;20053;-80
2021/11/03 12:45:36;;;;;;;6.97;3.10;;;;;;;;;;5033151;28;20060;-81
2021/11/03 12:48:03;;;;;;;5.75;2.45;;;;;;;;;;5034410;28;20064;-81
2021/11/03 12:50:34;;;;;;;4.78;2.67;;;;;;;;;;5038921;28;20059;-81
2021/11/03 12:53:07;;;;;;;4.07;2.63;;;;;;;;;;5039566;28;20034;-82
2021/11/03 12:55:43;;;;;;;4.05;2.47;;;;;;;;;;5038551;28;20044;-81
2021/11/03 12:58:28;;;;;;;4.47;2.47;;;;;;;;;;5039087;28;20053;-81
2021/11/03 13:00:54;;;;;;;5.50;3.08;;;;;;;;;;5036054;28;20290;-81
2021/11/03 13:03:23;;;;;;;7.75;3.03;;;;;;;;;;5039882;28;20056;-81
2021/11/03 13:05:50;;;;;;;4.97;2.70;;;;;;;;;;5039166;28;20064;-81
2021/11/03 13:08:21;;;;;;;5.57;3.00;;;;;;;;;;5039038;28;20596;-82
2021/11/03 13:10:59;;;;;;;4.30;2.80;;;;;;;;;;5040028;28;20037;-81
2021/11/03 13:13:25;;;;;;;6.80;3.00;;;;;;;;;;5038579;28;20398;-81
2021/11/03 13:15:54;;;;;;;6.10;2.88;;;;;;;;;;5038691;28;20871;-81
2021/11/03 13:18:23;;;;;;;4.95;2.78;;;;;;;;;;5037534;28;20049;-81
2021/11/03 13:20:55;;;;;;;9.60;3.83;;;;;;;;;;5039021;28;20052;-81
2021/11/03 13:23:22;;;;;;;5.18;2.97;;;;;;;;;;5037924;28;20057;-81
2021/11/03 13:25:53;;;;;;;8.43;2.78;;;;;;;;;;5036397;28;20045;-81
2021/11/03 13:28:25;;;;;;;3.65;2.55;;;;;;;;;;5038357;28;20056;-81
2021/11/03 13:30:56;;;;;;;4.78;2.50;;;;;;;;;;5038621;28;20049;-81
2021/11/03 13:33:29;;;;;;;4.18;2.60;;;;;;;;;;5037616;28;20048;-81
2021/11/03 13:36:04;;;;;;;4.63;2.70;;;;;;;;;;5038651;28;20128;-81
2021/11/03 13:38:32;;;;;;;4.47;2.85;;;;;;;;;;5037565;28;20405;-81
2021/11/03 13:41:02;;;;;;;4.32;2.65;;;;;;;;;;5038564;28;20059;-81
2021/11/03 13:43:29;;;;;;;4.30;2.55;;;;;;;;;;5038851;28;20049;-81
2021/11/03 13:46:15;;;;;;;7.07;3.00;;;;;;;;;;5038564;28;20605;-81
2021/11/03 13:48:46;;;;;;;6.20;2.85;;;;;;;;;;5037127;28;20045;-81
2021/11/03 13:51:18;;;;;;;3.33;2.28;;;;;;;;;;5036071;28;20478;-81
2021/11/03 13:53:59;;;;;;;5.43;2.90;;;;;;;;;;5038019;28;20049;-81
2021/11/03 13:56:28;;;;;;;6.07;3.10;;;;;;;;;;5037956;28;20049;-81
2021/11/03 13:59:18;;;;;;;5.30;2.88;;;;;;;;;;5038169;28;20057;-81
2021/11/03 14:01:50;;;;;;;4.55;3.10;;;;;;;;;;5032853;28;20045;-81
2021/11/03 14:04:20;;;;;;;6.88;3.63;;;;;;;;;;5033889;28;20057;-81
2021/11/03 14:07:07;;;;;;;5.25;3.22;;;;;;;;;;5033933;28;20037;-81
2021/11/03 14:09:34;;;;;;;5.25;3.10;;;;;;;;;;5034124;28;20053;-81
2021/11/03 14:12:03;;;;;;;6.93;3.70;;;;;;;;;;5033583;28;20046;-81
2021/11/03 14:14:30;;;;;;;6.88;4.13;;;;;;;;;;5033322;28;20037;-81
2021/11/03 14:17:16;;;;;;;8.02;3.72;;;;;;;;;;5033865;28;20040;-81
2021/11/03 14:19:49;;;;;;;7.68;4.30;;;;;;;;;;5034391;28;20048;-80
2021/11/03 14:22:18;;;;;;;6.80;4.85;;;;;;;;;;5034082;28;20480;-81
2021/11/03 14:24:45;;;;;;;6.45;4.35;;;;;;;;;;5034679;28;20034;-81
2021/11/03 14:27:13;;;;;;;6.25;4.32;;;;;;;;;;5033711;28;20042;-81
2021/11/03 14:29:40;;;;;;;5.47;3.88;;;;;;;;;;5034123;28;20046;-81
2021/11/03 14:32:10;;;;;;;5.90;4.30;;;;;;;;;;5033766;28;20045;-81
2021/11/03 14:34:39;;;;;;;8.98;4.75;;;;;;;;;;5033777;28;20044;-81
2021/11/03 14:37:05;;;;;;;7.35;4.65;;;;;;;;;;5034625;28;20038;-81
2021/11/03 14:39:35;;;;;;;6.60;4.03;;;;;;;;;;5033753;28;20050;-82
2021/11/03 14:42:02;;;;;;;6.53;4.47;;;;;;;;;;5033089;28;20049;-81
2021/11/03 14:44:30;;;;;;;8.32;5.05;;;;;;;;;;5034191;28;20500;-82
2021/11/03 14:46:58;;;;;;;7.20;4.43;;;;;;;;;;5034877;28;20049;-82
2021/11/03 14:49:30;;;;;;;7.45;4.97;;;;;;;;;;5034765;28;20061;-82
2021/11/03 14:51:57;;;;;;;6.82;4.88;;;;;;;;;;5032723;28;20053;-82
2021/11/03 14:54:24;;;;;;;7.10;5.32;;;;;;;;;;5018647;28;20048;-82
2021/11/03 14:56:52;;;;;;;7.75;5.13;;;;;;;;;;5034889;28;20049;-82
2021/11/03 14:59:18;;;;;;;8.05;5.18;;;;;;;;;;5034972;28;20050;-82